createdAt,value
2019-01-10T00:01:34.552Z,24.30
2019-01-10T00:04:06.318Z,23.63
2019-01-10T00:06:38.989Z,26.10
2019-01-10T00:09:10.451Z,25.47
2019-01-10T00:11:41.586Z,22.90
2019-01-10T00:14:13.080Z,24.37
2019-01-10T00:16:44.202Z,25.70
2019-01-10T00:19:14.931Z,25.07
2019-01-10T00:21:46.166Z,25.47
2019-01-10T00:24:16.614Z,24.50
2019-01-10T00:26:47.837Z,23.83
2019-01-10T00:29:18.275Z,24.37
2019-01-10T00:31:49.511Z,24.63
2019-01-10T00:34:19.948Z,23.90
2019-01-10T00:36:50.871Z,25.03
2019-01-10T00:39:21.305Z,24.93
2019-01-10T00:41:52.227Z,24.47
2019-01-10T00:44:22.754Z,25.10
2019-01-10T00:46:53.944Z,25.80
2019-01-10T00:49:24.913Z,25.43
2019-01-10T00:51:55.667Z,25.47
2019-01-10T00:54:26.345Z,25.00
2019-01-10T00:56:57.259Z,24.60
2019-01-10T00:59:28.199Z,24.63
2019-01-10T01:01:59.573Z,24.47
2019-01-10T01:04:30.410Z,26.17
2019-01-10T01:07:01.545Z,25.00
2019-01-10T01:09:32.711Z,24.73
2019-01-10T01:12:04.124Z,26.53
2019-01-10T01:14:34.985Z,28.30
2019-01-10T01:17:06.066Z,25.77
2019-01-10T01:19:37.273Z,28.17
2019-01-10T01:22:08.135Z,25.83
2019-01-10T01:24:39.529Z,25.10
2019-01-10T01:27:11.594Z,25.77
2019-01-10T01:29:42.854Z,26.37
2019-01-10T01:32:14.201Z,27.20
2019-01-10T01:34:45.642Z,27.57
2019-01-10T01:37:17.102Z,26.90
2019-01-10T01:39:48.234Z,28.17
2019-01-10T01:42:19.382Z,27.13
2019-01-10T01:44:50.559Z,26.50
2019-01-10T01:47:21.976Z,26.03
2019-01-10T01:49:53.758Z,28.33
2019-01-10T01:52:24.481Z,26.70
2019-01-10T01:54:55.274Z,27.13
2019-01-10T01:57:25.925Z,27.87
2019-01-10T01:59:57.090Z,28.03
2019-01-10T02:02:28.525Z,27.30
2019-01-10T02:04:59.978Z,28.70
2019-01-10T02:07:32.038Z,27.87
2019-01-10T02:10:03.190Z,27.63
2019-01-10T02:12:33.878Z,27.77
2019-01-10T02:15:05.242Z,28.70
2019-01-10T02:17:36.478Z,28.00
2019-01-10T02:20:07.969Z,28.77
2019-01-10T02:22:39.079Z,26.50
2019-01-10T02:25:10.368Z,27.37
2019-01-10T02:27:41.048Z,27.83
2019-01-10T02:30:14.950Z,28.57
2019-01-10T02:32:45.772Z,27.10
2019-01-10T02:35:17.263Z,28.57
2019-01-10T02:37:48.451Z,27.43
2019-01-10T02:40:19.605Z,31.90
2019-01-10T02:42:50.821Z,27.53
2019-01-10T02:45:22.270Z,28.50
2019-01-10T02:47:53.756Z,28.57
2019-01-10T02:50:24.895Z,27.77
2019-01-10T02:52:56.035Z,28.57
2019-01-10T02:55:27.453Z,28.03
2019-01-10T02:57:58.616Z,27.60
2019-01-10T03:00:31.521Z,30.23
2019-01-10T03:03:03.076Z,28.53
2019-01-10T03:05:33.622Z,28.97
2019-01-10T03:08:04.509Z,27.90
2019-01-10T03:10:36.267Z,27.50
2019-01-10T03:13:07.309Z,29.73
2019-01-10T03:15:37.640Z,29.07
2019-01-10T03:18:08.734Z,27.90
2019-01-10T03:20:39.031Z,28.00
2019-01-10T03:23:10.124Z,28.97
2019-01-10T03:25:40.718Z,27.07
2019-01-10T03:28:11.650Z,27.60
2019-01-10T03:30:42.408Z,26.90
2019-01-10T03:33:13.899Z,28.57
2019-01-10T03:35:44.349Z,29.03
2019-01-10T03:38:15.331Z,29.63
2019-01-10T03:40:45.739Z,29.30
2019-01-10T03:43:16.762Z,28.13
2019-01-10T03:45:47.278Z,29.87
2019-01-10T03:48:18.506Z,27.20
2019-01-10T03:50:48.945Z,29.10
2019-01-10T03:53:19.989Z,29.27
2019-01-10T03:55:50.457Z,26.60
2019-01-10T03:58:21.289Z,27.43
2019-01-10T04:00:52.226Z,28.60
2019-01-10T04:03:23.336Z,30.00
2019-01-10T04:05:54.469Z,29.63
2019-01-10T04:08:26.122Z,29.03
2019-01-10T04:10:57.274Z,28.70
2019-01-10T04:13:28.501Z,27.90
2019-01-10T04:15:58.948Z,27.17
2019-01-10T04:18:30.174Z,29.87
2019-01-10T04:21:00.615Z,26.33
2019-01-10T04:23:31.543Z,27.30
2019-01-10T04:26:01.838Z,28.63
2019-01-10T04:28:32.921Z,28.80
2019-01-10T04:31:03.351Z,29.57
2019-01-10T04:33:34.046Z,28.80
2019-01-10T04:36:05.155Z,29.00
2019-01-10T04:38:36.497Z,28.37
2019-01-10T04:41:07.011Z,29.27
2019-01-10T04:43:38.240Z,29.83
2019-01-10T04:46:08.665Z,28.07
2019-01-10T04:48:39.603Z,27.60
2019-01-10T04:51:10.026Z,29.37
2019-01-10T04:53:40.966Z,27.03
2019-01-10T04:56:11.389Z,29.37
2019-01-10T04:58:42.361Z,27.43
2019-01-10T05:01:13.218Z,28.40
2019-01-10T05:03:44.463Z,27.40
2019-01-10T05:06:15.868Z,28.30
2019-01-10T05:08:47.009Z,28.73
2019-01-10T05:11:18.189Z,29.00
2019-01-10T05:13:49.052Z,29.03
2019-01-10T05:16:20.539Z,28.63
2019-01-10T05:18:52.339Z,27.33
2019-01-10T05:21:23.753Z,28.33
2019-01-10T05:23:55.207Z,27.33
2019-01-10T05:26:26.654Z,27.97
2019-01-10T05:28:58.529Z,28.83
2019-01-10T05:31:29.589Z,27.03
2019-01-10T05:34:00.937Z,27.20
2019-01-10T05:36:32.470Z,28.17
2019-01-10T05:39:04.270Z,29.63
2019-01-10T05:41:35.962Z,28.37
2019-01-10T05:44:06.809Z,29.50
2019-01-10T05:46:48.118Z,31.83
2019-01-10T05:49:13.399Z,28.63
2019-01-10T05:51:44.376Z,29.13
2019-01-10T05:54:15.528Z,27.57
2019-01-10T05:56:46.799Z,29.73
2019-01-10T05:59:18.178Z,26.33
2019-01-10T06:01:49.357Z,29.10
2019-01-10T06:04:20.522Z,29.33
2019-01-10T06:06:52.258Z,27.67
2019-01-10T06:09:24.279Z,28.17
2019-01-10T06:11:56.689Z,28.33
2019-01-10T06:14:35.558Z,27.47
2019-01-10T06:17:00.073Z,30.00
2019-01-10T06:19:30.562Z,28.40
2019-01-10T06:22:01.749Z,27.97
2019-01-10T06:24:32.387Z,28.70
2019-01-10T06:27:03.733Z,28.13
2019-01-10T06:29:34.217Z,29.27
2019-01-10T06:32:05.354Z,25.97
2019-01-10T06:34:35.881Z,26.70
2019-01-10T06:37:07.115Z,27.57
2019-01-10T06:39:38.260Z,28.07
2019-01-10T06:42:09.666Z,26.77
2019-01-10T06:44:44.666Z,29.10
2019-01-10T06:47:14.413Z,27.80
2019-01-10T06:49:45.595Z,27.07
2019-01-10T06:52:17.043Z,28.20
2019-01-10T06:54:56.264Z,27.40
2019-01-10T06:57:20.860Z,26.90
2019-01-10T06:59:52.306Z,27.47
2019-01-10T07:02:23.486Z,25.80
2019-01-10T07:04:54.621Z,28.30
2019-01-10T07:07:27.245Z,26.80
2019-01-10T07:09:58.086Z,28.73
2019-01-10T07:12:29.587Z,28.73
2019-01-10T07:15:00.673Z,28.50
2019-01-10T07:17:31.835Z,28.03
2019-01-10T07:20:02.451Z,27.67
2019-01-10T07:22:33.522Z,28.53
2019-01-10T07:25:04.962Z,26.03
2019-01-10T07:27:35.814Z,29.70
2019-01-10T07:30:07.626Z,28.83
2019-01-10T07:32:38.485Z,26.33
2019-01-10T07:35:11.661Z,28.10
2019-01-10T07:37:45.375Z,27.17
2019-01-10T07:40:17.724Z,28.43
2019-01-10T07:42:48.946Z,28.27
2019-01-10T07:45:23.465Z,27.83
2019-01-10T07:47:54.555Z,28.30
2019-01-10T07:50:33.834Z,28.83
2019-01-10T07:53:06.057Z,27.57
2019-01-10T07:55:37.177Z,27.97
2019-01-10T07:58:08.387Z,26.93
2019-01-10T08:00:38.972Z,28.20
2019-01-10T08:03:09.754Z,29.17
2019-01-10T08:05:40.901Z,27.57
2019-01-10T08:08:14.270Z,26.77
2019-01-10T08:10:45.609Z,27.80
2019-01-10T08:13:16.751Z,26.57
2019-01-10T08:15:47.791Z,27.67
2019-01-10T08:18:19.030Z,27.00
2019-01-10T08:20:50.527Z,25.93
2019-01-10T08:23:21.548Z,25.60
2019-01-10T08:25:52.766Z,27.03
2019-01-10T08:28:23.957Z,28.43
2019-01-10T08:30:55.330Z,26.60
2019-01-10T08:33:26.747Z,28.87
2019-01-10T08:35:58.096Z,27.10
2019-01-10T08:38:29.530Z,26.97
2019-01-10T08:41:00.801Z,26.13
2019-01-10T08:43:32.087Z,26.73
2019-01-10T08:46:03.678Z,28.73
2019-01-10T08:48:35.109Z,41.50
2019-01-10T08:51:08.611Z,39.20
2019-01-10T08:53:40.266Z,37.57
2019-01-10T08:56:12.102Z,35.77
2019-01-10T08:58:43.174Z,36.33
2019-01-10T09:01:14.002Z,33.53
2019-01-10T09:03:44.898Z,29.80
2019-01-10T09:06:16.290Z,31.57
2019-01-10T09:08:47.432Z,30.23
2019-01-10T09:11:19.190Z,30.33
2019-01-10T09:13:50.145Z,30.83
2019-01-10T09:16:20.799Z,29.17
2019-01-10T09:18:51.731Z,27.37
2019-01-10T09:21:23.519Z,27.83
2019-01-10T09:23:54.362Z,26.67
2019-01-10T09:26:25.050Z,28.57
2019-01-10T09:28:56.405Z,25.30
2019-01-10T09:31:28.482Z,28.47
2019-01-10T09:33:58.907Z,25.90
2019-01-10T09:36:30.155Z,26.63
2019-01-10T09:39:00.547Z,26.20
2019-01-10T09:41:32.872Z,24.20
2019-01-10T09:44:03.257Z,24.97
2019-01-10T09:46:34.007Z,25.57
2019-01-10T09:49:04.615Z,26.20
2019-01-10T09:51:35.542Z,25.97
2019-01-10T09:54:06.396Z,27.73
2019-01-10T09:56:36.901Z,27.60
2019-01-10T09:59:07.187Z,26.82
2019-01-10T10:01:38.110Z,25.70
2019-01-10T10:04:09.069Z,27.03
2019-01-10T10:06:40.667Z,26.03
2019-01-10T10:09:12.739Z,28.23
2019-01-10T10:11:44.189Z,26.57
2019-01-10T10:14:15.441Z,27.30
2019-01-10T10:16:47.078Z,26.53
2019-01-10T10:19:18.342Z,26.87
2019-01-10T10:21:49.410Z,26.07
2019-01-10T10:24:20.825Z,24.57
2019-01-10T10:26:51.968Z,26.37
2019-01-10T10:29:22.701Z,24.20
2019-01-10T10:31:54.872Z,27.43
2019-01-10T10:34:26.004Z,30.77
2019-01-10T10:36:57.465Z,29.57
2019-01-10T10:39:28.638Z,31.93
2019-01-10T10:42:00.058Z,30.73
2019-01-10T10:44:31.206Z,32.10
2019-01-10T10:47:02.497Z,31.10
2019-01-10T10:49:34.104Z,29.07
2019-01-10T10:52:06.470Z,32.93
2019-01-10T10:54:37.622Z,30.50
2019-01-10T10:57:08.762Z,31.87
2019-01-10T10:59:39.951Z,31.57
2019-01-10T11:02:12.582Z,28.87
2019-01-10T11:04:43.729Z,29.67
2019-01-10T11:07:15.284Z,31.00
2019-01-10T11:09:46.387Z,30.57
2019-01-10T11:12:17.582Z,30.87
2019-01-10T11:14:48.718Z,29.77
2019-01-10T11:17:20.249Z,30.50
2019-01-10T11:19:51.925Z,31.53
2019-01-10T11:22:23.105Z,33.83
2019-01-10T11:24:55.131Z,29.60
2019-01-10T11:27:26.331Z,26.90
2019-01-10T11:29:56.879Z,27.50
2019-01-10T11:32:27.648Z,34.63
2019-01-10T11:34:58.127Z,28.47
2019-01-10T11:37:29.315Z,27.03
2019-01-10T11:39:59.799Z,27.30
2019-01-10T11:42:30.643Z,27.93
2019-01-10T11:45:01.091Z,27.37
2019-01-10T11:47:32.003Z,27.27
2019-01-10T11:50:02.492Z,28.50
2019-01-10T11:52:33.713Z,26.87
2019-01-10T11:55:04.607Z,31.47
2019-01-10T11:57:35.431Z,31.70
2019-01-10T12:00:10.549Z,37.83
2019-01-10T12:02:41.678Z,33.40
2019-01-10T12:05:12.997Z,34.10
2019-01-10T12:07:44.279Z,39.93
2019-01-10T12:10:15.717Z,33.17
2019-01-10T12:12:46.899Z,31.20
2019-01-10T12:15:18.616Z,31.50
2019-01-10T12:17:50.682Z,30.23
2019-01-10T12:20:21.861Z,30.63
2019-01-10T12:22:52.982Z,30.83
2019-01-10T12:25:24.170Z,36.43
2019-01-10T12:27:55.811Z,28.70
2019-01-10T12:30:27.403Z,33.83
2019-01-10T12:32:58.611Z,31.20
2019-01-10T12:35:29.965Z,35.27
2019-01-10T12:38:01.372Z,31.37
2019-01-10T12:40:32.833Z,32.33
2019-01-10T12:43:03.958Z,30.83
2019-01-10T12:45:35.409Z,31.37
2019-01-10T12:48:06.884Z,30.93
2019-01-10T12:50:37.706Z,32.60
2019-01-10T12:53:10.386Z,30.23
2019-01-10T12:55:41.531Z,29.97
2019-01-10T12:58:12.373Z,31.47
2019-01-10T13:00:42.929Z,35.97
2019-01-10T13:03:14.134Z,31.57
2019-01-10T13:05:45.465Z,34.37
2019-01-10T13:08:16.418Z,34.07
2019-01-10T13:10:47.481Z,34.07
2019-01-10T13:13:19.262Z,30.97
2019-01-10T13:15:49.990Z,34.30
2019-01-10T13:18:21.232Z,32.67
2019-01-10T13:20:51.770Z,35.00
2019-01-10T13:23:22.574Z,30.83
2019-01-10T13:25:59.516Z,29.47
2019-01-10T13:28:25.930Z,29.93
2019-01-10T13:30:56.457Z,32.77
2019-01-10T13:33:27.486Z,33.90
2019-01-10T13:35:58.959Z,33.53
2019-01-10T13:38:30.381Z,39.13
2019-01-10T13:41:02.568Z,38.60
2019-01-10T13:43:33.898Z,38.07
2019-01-10T13:46:05.351Z,44.73
2019-01-10T13:48:36.394Z,37.90
2019-01-10T13:51:07.311Z,35.33
2019-01-10T13:53:38.673Z,33.97
2019-01-10T13:56:09.922Z,33.67
2019-01-10T13:58:41.342Z,33.20
2019-01-10T14:01:12.236Z,33.70
2019-01-10T14:03:42.974Z,35.65
2019-01-10T14:06:14.163Z,33.40
2019-01-10T14:08:45.301Z,33.00
2019-01-10T14:11:16.450Z,32.57
2019-01-10T14:13:47.893Z,32.67
2019-01-10T14:16:19.102Z,34.35
2019-01-10T14:18:50.190Z,35.00
2019-01-10T14:21:21.269Z,34.87
2019-01-10T14:23:52.338Z,32.83
2019-01-10T14:26:24.788Z,34.77
2019-01-10T14:28:55.722Z,33.83
2019-01-10T14:31:27.133Z,35.60
2019-01-10T14:33:58.470Z,33.40
2019-01-10T14:36:29.701Z,34.93
2019-01-10T14:39:00.661Z,31.73
2019-01-10T14:41:33.535Z,33.97
2019-01-10T14:44:05.343Z,33.80
2019-01-10T14:46:36.340Z,33.03
2019-01-10T14:49:07.909Z,33.50
2019-01-10T14:51:39.351Z,33.87
2019-01-10T14:54:10.229Z,31.57
2019-01-10T14:56:42.111Z,33.13
2019-01-10T14:59:13.717Z,33.07
2019-01-10T15:01:45.120Z,34.53
2019-01-10T15:04:16.314Z,32.90
2019-01-10T15:06:47.171Z,35.87
2019-01-10T15:09:18.213Z,32.57
2019-01-10T15:11:49.442Z,33.00
2019-01-10T15:14:20.950Z,33.17
2019-01-10T15:16:53.065Z,32.83
2019-01-10T15:19:24.591Z,33.83
2019-01-10T15:21:56.156Z,34.37
2019-01-10T15:24:27.245Z,33.10
2019-01-10T15:26:58.601Z,35.10
2019-01-10T15:29:29.581Z,33.60
2019-01-10T15:32:01.054Z,36.13
2019-01-10T15:34:32.510Z,36.63
2019-01-10T15:37:03.951Z,33.10
2019-01-10T15:39:35.566Z,35.70
2019-01-10T15:42:08.076Z,36.33
2019-01-10T15:44:39.073Z,35.13
2019-01-10T15:47:10.363Z,38.07
2019-01-10T15:49:41.554Z,35.03
2019-01-10T15:52:13.324Z,34.80
2019-01-10T15:54:44.404Z,35.17
2019-01-10T15:57:16.639Z,35.03
2019-01-10T15:59:47.297Z,34.17
2019-01-10T16:02:18.277Z,33.67
2019-01-10T16:04:48.667Z,33.63
2019-01-10T16:07:19.498Z,32.27
2019-01-10T16:09:52.116Z,34.90
2019-01-10T16:12:23.635Z,33.17
2019-01-10T16:14:54.809Z,34.17
2019-01-10T16:17:25.771Z,34.87
2019-01-10T16:19:57.674Z,32.13
2019-01-10T16:22:29.162Z,32.30
2019-01-10T16:24:59.966Z,31.23
2019-01-10T16:27:32.268Z,30.67
2019-01-10T16:30:03.476Z,31.30
2019-01-10T16:32:34.767Z,32.93
2019-01-10T16:35:06.586Z,32.57
2019-01-10T16:37:37.833Z,32.90
2019-01-10T16:40:09.744Z,31.27
2019-01-10T16:42:40.737Z,32.23
2019-01-10T16:45:15.154Z,32.33
2019-01-10T16:47:46.647Z,31.30
2019-01-10T16:50:18.174Z,29.87
2019-01-10T16:52:49.218Z,31.17
2019-01-10T16:55:20.456Z,30.37
2019-01-10T16:57:52.206Z,31.60
2019-01-10T17:00:29.644Z,32.67
2019-01-10T17:03:01.260Z,29.53
2019-01-10T17:05:32.373Z,29.67
2019-01-10T17:08:03.843Z,30.47
2019-01-10T17:10:34.988Z,31.00
2019-01-10T17:13:08.082Z,30.07
2019-01-10T17:15:39.777Z,31.33
2019-01-10T17:18:10.929Z,30.17
2019-01-10T17:20:42.033Z,28.53
2019-01-10T17:23:12.784Z,31.17
2019-01-10T17:25:43.700Z,29.57
2019-01-10T17:28:15.382Z,29.73
2019-01-10T17:30:47.846Z,30.40
2019-01-10T17:33:18.275Z,30.27
2019-01-10T17:35:49.537Z,30.63
2019-01-10T17:38:20.123Z,28.10
2019-01-10T17:40:51.206Z,31.53
2019-01-10T17:43:21.660Z,28.47
2019-01-10T17:45:52.541Z,30.53
2019-01-10T17:48:22.989Z,30.40
2019-01-10T17:50:53.680Z,28.10
2019-01-10T17:53:24.055Z,28.47
2019-01-10T17:55:55.149Z,26.40
2019-01-10T17:58:25.665Z,29.13
2019-01-10T18:00:57.475Z,30.80
2019-01-10T18:03:28.121Z,27.77
2019-01-10T18:05:58.971Z,27.77
2019-01-10T18:08:29.944Z,30.27
2019-01-10T18:11:01.735Z,29.60
2019-01-10T18:13:32.846Z,29.07
2019-01-10T18:16:04.071Z,29.10
2019-01-10T18:18:35.183Z,28.17
2019-01-10T18:21:06.614Z,28.03
2019-01-10T18:23:37.763Z,28.70
2019-01-10T18:26:09.439Z,30.00
2019-01-10T18:28:41.809Z,29.60
2019-01-10T18:31:13.409Z,27.63
2019-01-10T18:33:44.481Z,30.10
2019-01-10T18:36:15.478Z,29.57
2019-01-10T18:38:46.925Z,29.53
2019-01-10T18:41:19.433Z,29.00
2019-01-10T18:43:50.843Z,29.97
2019-01-10T18:46:22.062Z,31.27
2019-01-10T18:48:53.513Z,28.87
2019-01-10T18:51:24.935Z,27.53
2019-01-10T18:53:56.388Z,29.33
2019-01-10T18:56:27.623Z,28.40
2019-01-10T18:58:58.669Z,29.70
2019-01-10T19:01:30.235Z,30.10
2019-01-10T19:04:01.511Z,28.07
2019-01-10T19:06:32.438Z,28.57
2019-01-10T19:09:04.094Z,29.93
2019-01-10T19:11:35.566Z,32.73
2019-01-10T19:14:06.979Z,30.03
2019-01-10T19:16:38.135Z,29.47
2019-01-10T19:19:09.568Z,28.90
2019-01-10T19:21:40.962Z,29.90
2019-01-10T19:24:12.107Z,30.50
2019-01-10T19:26:43.227Z,28.53
2019-01-10T19:29:14.861Z,30.70
2019-01-10T19:31:46.204Z,28.30
2019-01-10T19:34:17.366Z,27.57
2019-01-10T19:36:48.919Z,27.63
2019-01-10T19:39:19.941Z,27.77
2019-01-10T19:41:51.398Z,26.03
2019-01-10T19:44:22.788Z,29.73
2019-01-10T19:46:54.027Z,32.63
2019-01-10T19:49:25.053Z,29.37
2019-01-10T19:51:56.486Z,29.30
2019-01-10T19:54:27.569Z,31.27
2019-01-10T19:56:58.790Z,28.57
2019-01-10T19:59:29.683Z,28.83
2019-01-10T20:02:00.498Z,29.07
2019-01-10T20:04:31.614Z,28.43
2019-01-10T20:07:02.029Z,28.00
2019-01-10T20:09:33.001Z,30.87
2019-01-10T20:12:03.998Z,28.13
2019-01-10T20:14:34.963Z,28.33
2019-01-10T20:17:06.415Z,28.20
2019-01-10T20:19:38.073Z,28.47
2019-01-10T20:22:10.430Z,28.90
2019-01-10T20:24:44.010Z,30.23
2019-01-10T20:27:16.377Z,30.43
2019-01-10T20:29:48.764Z,27.13
2019-01-10T20:32:22.354Z,30.50
2019-01-10T20:34:53.651Z,29.00
2019-01-10T20:37:25.090Z,28.00
2019-01-10T20:39:56.002Z,30.63
2019-01-10T20:42:30.164Z,27.77
2019-01-10T20:45:01.656Z,29.83
2019-01-10T20:47:33.087Z,28.93
2019-01-10T20:50:05.981Z,28.10
2019-01-10T20:52:37.315Z,27.17
2019-01-10T20:55:10.356Z,29.27
2019-01-10T20:57:41.601Z,29.90
2019-01-10T21:00:18.339Z,29.97
2019-01-10T21:02:49.914Z,30.80
2019-01-10T21:05:20.941Z,30.47
2019-01-10T21:07:54.279Z,29.57
2019-01-10T21:10:26.217Z,27.67
2019-01-10T21:12:57.240Z,29.83
2019-01-10T21:15:30.122Z,29.67
2019-01-10T21:18:01.210Z,29.90
2019-01-10T21:20:32.574Z,27.77
2019-01-10T21:23:03.967Z,33.67
2019-01-10T21:25:35.213Z,31.87
2019-01-10T21:28:06.282Z,29.93
2019-01-10T21:30:37.515Z,30.33
2019-01-10T21:33:08.402Z,29.70
2019-01-10T21:35:39.506Z,29.20
2019-01-10T21:38:10.938Z,30.33
2019-01-10T21:40:45.830Z,28.77
2019-01-10T21:43:16.802Z,30.20
2019-01-10T21:45:50.022Z,31.47
2019-01-10T21:48:21.555Z,31.43
2019-01-10T21:50:52.894Z,31.67
2019-01-10T21:53:24.123Z,31.20
2019-01-10T21:55:55.693Z,29.73
2019-01-10T21:58:27.452Z,30.83
2019-01-10T22:00:58.682Z,31.07
2019-01-10T22:03:29.748Z,30.10
2019-01-10T22:06:01.335Z,30.97
2019-01-10T22:08:32.745Z,32.30
2019-01-10T22:11:04.026Z,30.90
2019-01-10T22:13:35.449Z,32.30
2019-01-10T22:16:06.204Z,29.40
2019-01-10T22:18:41.425Z,32.60
2019-01-10T22:21:09.419Z,30.93
2019-01-10T22:23:40.390Z,28.90
2019-01-10T22:26:11.055Z,31.30
2019-01-10T22:28:42.294Z,30.20
2019-01-10T22:31:14.465Z,30.73
2019-01-10T22:33:45.826Z,30.33
2019-01-10T22:36:17.092Z,29.83
2019-01-10T22:38:48.618Z,30.33
2019-01-10T22:41:20.101Z,30.20
2019-01-10T22:43:51.117Z,30.53
2019-01-10T22:46:22.555Z,31.73
2019-01-10T22:48:53.792Z,29.93
2019-01-10T22:51:25.063Z,33.50
2019-01-10T22:53:56.408Z,31.00
2019-01-10T22:56:28.003Z,29.83
2019-01-10T22:58:59.222Z,29.13
2019-01-10T23:01:57.279Z,31.83
2019-01-10T23:04:32.646Z,31.13
2019-01-10T23:07:03.966Z,33.10
2019-01-10T23:09:35.043Z,31.03
2019-01-10T23:12:07.677Z,28.53
2019-01-10T23:14:38.144Z,29.90
2019-01-10T23:17:09.070Z,29.77
2019-01-10T23:19:47.496Z,29.27
2019-01-10T23:22:18.605Z,28.97
2019-01-10T23:24:59.246Z,28.00
2019-01-10T23:27:30.042Z,29.53
2019-01-10T23:30:00.448Z,29.67
2019-01-10T23:32:31.377Z,29.57
2019-01-10T23:35:02.134Z,29.23
2019-01-10T23:37:32.724Z,28.93
2019-01-10T23:40:03.177Z,28.53
2019-01-10T23:42:34.751Z,28.63
2019-01-10T23:45:06.139Z,28.97
2019-01-10T23:47:37.007Z,27.27
2019-01-10T23:50:07.694Z,30.83
2019-01-10T23:52:38.895Z,32.20
2019-01-10T23:55:10.782Z,31.13
2019-01-10T23:57:42.193Z,29.77
